ダルエスサラーム の空港の天気 - METARとTAF

ジュリウス・ニエレレ国際空港(ダルエスサラーム) ( HTDA / DAR ) - タンザニア ダルエスサラーム
飛行場実況気象(Metar)
観測時間04/26 13:00 EAT (04/26 10:00 UTC)
風向・風速南 5m/s
視程10km以上
天気現象
全天の8割程度の雲 雲底高度 730m
気温32℃
湿度52%
気圧1012hPa
METARHTDA 261000Z 18010KT 9999 BKN024 32/21 Q1012 NOSIG
過去の天気等 Google飛行場航空写真 Wunderground天気予報

過去48時間のMETAR

飛行場予報(TAF)
発表時間: 4/26 08:00 EAT (4/26 05:00 UTC)
予報対象時間: 26日9時 EAT ~ 27日15時 EAT
風向・風速南 5m/s
視程10km以上
全天の8割程度の雲 雲底高度 550m
少しの積乱雲 雲底高度 580m
26日18時 EAT ~ 26日21時 EAT に徐々に
少しの雲 雲底高度 610m
HTDA 260500Z 2606/2712 17010KT 9999 BKN018 FEW019CB
BECMG 2615/2618 FEW020